sensor_id;sensor_type;location;lat;lon;timestamp;temperature;humidity
22781;DHT22;11557;50.884;4.322;2024-01-07T00:01:23;5.50;99.90
22781;DHT22;11557;50.884;4.322;2024-01-07T00:03:51;6.20;99.90
22781;DHT22;11557;50.884;4.322;2024-01-07T00:06:17;5.80;99.90
22781;DHT22;11557;50.884;4.322;2024-01-07T00:08:43;6.10;99.90
22781;DHT22;11557;50.884;4.322;2024-01-07T00:11:09;6.10;99.90
22781;DHT22;11557;50.884;4.322;2024-01-07T00:13:35;6.10;99.90
22781;DHT22;11557;50.884;4.322;2024-01-07T00:16:01;6.00;99.90
22781;DHT22;11557;50.884;4.322;2024-01-07T00:18:27;6.00;99.90
22781;DHT22;11557;50.884;4.322;2024-01-07T00:20:53;6.00;99.90
22781;DHT22;11557;50.884;4.322;2024-01-07T00:23:19;5.70;99.90
22781;DHT22;11557;50.884;4.322;2024-01-07T00:25:48;5.70;99.90
22781;DHT22;11557;50.884;4.322;2024-01-07T00:28:14;5.80;99.90
22781;DHT22;11557;50.884;4.322;2024-01-07T00:30:40;5.70;99.90
22781;DHT22;11557;50.884;4.322;2024-01-07T00:33:06;5.60;99.90
22781;DHT22;11557;50.884;4.322;2024-01-07T00:35:31;5.50;99.90
22781;DHT22;11557;50.884;4.322;2024-01-07T00:37:57;5.60;99.90
22781;DHT22;11557;50.884;4.322;2024-01-07T00:40:24;5.50;99.90
22781;DHT22;11557;50.884;4.322;2024-01-07T00:42:49;5.60;99.90
22781;DHT22;11557;50.884;4.322;2024-01-07T00:45:17;5.80;99.90
22781;DHT22;11557;50.884;4.322;2024-01-07T00:47:43;5.80;99.90
22781;DHT22;11557;50.884;4.322;2024-01-07T00:50:09;5.80;99.90
22781;DHT22;11557;50.884;4.322;2024-01-07T00:52:35;5.80;99.90
22781;DHT22;11557;50.884;4.322;2024-01-07T00:55:05;5.70;99.90
22781;DHT22;11557;50.884;4.322;2024-01-07T00:57:32;5.70;99.90
22781;DHT22;11557;50.884;4.322;2024-01-07T00:59:59;5.80;99.90
22781;DHT22;11557;50.884;4.322;2024-01-07T01:02:25;5.80;99.90
22781;DHT22;11557;50.884;4.322;2024-01-07T01:04:51;5.60;99.90
22781;DHT22;11557;50.884;4.322;2024-01-07T01:07:16;5.60;99.90
22781;DHT22;11557;50.884;4.322;2024-01-07T01:09:42;5.60;99.90
22781;DHT22;11557;50.884;4.322;2024-01-07T01:12:08;5.70;99.90
22781;DHT22;11557;50.884;4.322;2024-01-07T01:14:33;5.70;99.90
22781;DHT22;11557;50.884;4.322;2024-01-07T01:16:59;5.60;99.90
22781;DHT22;11557;50.884;4.322;2024-01-07T01:19:25;5.50;99.90
22781;DHT22;11557;50.884;4.322;2024-01-07T01:21:50;5.60;99.90
22781;DHT22;11557;50.884;4.322;2024-01-07T01:24:16;5.60;99.90
22781;DHT22;11557;50.884;4.322;2024-01-07T01:26:41;5.50;99.90
22781;DHT22;11557;50.884;4.322;2024-01-07T01:29:07;5.60;99.90
22781;DHT22;11557;50.884;4.322;2024-01-07T01:31:33;5.50;99.90
22781;DHT22;11557;50.884;4.322;2024-01-07T01:33:59;5.60;99.90
22781;DHT22;11557;50.884;4.322;2024-01-07T01:36:24;5.60;99.90
22781;DHT22;11557;50.884;4.322;2024-01-07T01:38:50;5.80;99.90
22781;DHT22;11557;50.884;4.322;2024-01-07T01:41:16;5.80;99.90
22781;DHT22;11557;50.884;4.322;2024-01-07T01:43:42;5.70;99.90
22781;DHT22;11557;50.884;4.322;2024-01-07T01:46:08;5.60;99.90
22781;DHT22;11557;50.884;4.322;2024-01-07T01:48:35;6.80;99.90
22781;DHT22;11557;50.884;4.322;2024-01-07T01:51:01;5.40;99.90
22781;DHT22;11557;50.884;4.322;2024-01-07T01:53:27;5.50;99.90
22781;DHT22;11557;50.884;4.322;2024-01-07T01:55:56;5.70;99.90
22781;DHT22;11557;50.884;4.322;2024-01-07T01:58:23;5.70;99.90
22781;DHT22;11557;50.884;4.322;2024-01-07T02:00:49;5.60;99.90
22781;DHT22;11557;50.884;4.322;2024-01-07T02:03:17;5.80;99.90
22781;DHT22;11557;50.884;4.322;2024-01-07T02:05:43;5.70;99.90
22781;DHT22;11557;50.884;4.322;2024-01-07T02:08:09;5.40;99.90
22781;DHT22;11557;50.884;4.322;2024-01-07T02:10:35;5.50;99.90
22781;DHT22;11557;50.884;4.322;2024-01-07T02:13:03;5.70;99.90
22781;DHT22;11557;50.884;4.322;2024-01-07T02:15:30;5.60;99.90
22781;DHT22;11557;50.884;4.322;2024-01-07T02:17:56;5.50;99.90
22781;DHT22;11557;50.884;4.322;2024-01-07T02:20:22;5.30;99.90
22781;DHT22;11557;50.884;4.322;2024-01-07T02:22:48;5.30;99.90
22781;DHT22;11557;50.884;4.322;2024-01-07T02:25:14;5.30;99.90
22781;DHT22;11557;50.884;4.322;2024-01-07T02:27:39;5.40;99.90
22781;DHT22;11557;50.884;4.322;2024-01-07T02:30:06;5.30;99.90
22781;DHT22;11557;50.884;4.322;2024-01-07T02:32:32;5.20;99.90
22781;DHT22;11557;50.884;4.322;2024-01-07T02:35:00;5.00;99.90
22781;DHT22;11557;50.884;4.322;2024-01-07T02:37:26;4.80;99.90
22781;DHT22;11557;50.884;4.322;2024-01-07T02:39:51;4.90;99.90
22781;DHT22;11557;50.884;4.322;2024-01-07T02:42:17;4.90;99.90
22781;DHT22;11557;50.884;4.322;2024-01-07T02:44:43;4.80;99.90
22781;DHT22;11557;50.884;4.322;2024-01-07T02:47:08;4.90;99.90
22781;DHT22;11557;50.884;4.322;2024-01-07T02:49:34;4.80;99.90
22781;DHT22;11557;50.884;4.322;2024-01-07T02:52:00;4.60;99.90
22781;DHT22;11557;50.884;4.322;2024-01-07T02:54:26;4.70;99.90
22781;DHT22;11557;50.884;4.322;2024-01-07T02:56:51;4.80;99.90
22781;DHT22;11557;50.884;4.322;2024-01-07T02:59:17;4.80;99.90
22781;DHT22;11557;50.884;4.322;2024-01-07T03:01:43;5.00;99.90
22781;DHT22;11557;50.884;4.322;2024-01-07T03:04:13;5.00;99.90
22781;DHT22;11557;50.884;4.322;2024-01-07T03:06:39;4.90;99.90
22781;DHT22;11557;50.884;4.322;2024-01-07T03:09:05;4.90;99.90
22781;DHT22;11557;50.884;4.322;2024-01-07T03:11:31;4.90;99.90
22781;DHT22;11557;50.884;4.322;2024-01-07T03:13:57;4.80;99.90
22781;DHT22;11557;50.884;4.322;2024-01-07T03:16:25;4.90;99.90
22781;DHT22;11557;50.884;4.322;2024-01-07T03:18:51;4.80;99.90
22781;DHT22;11557;50.884;4.322;2024-01-07T03:21:21;4.80;99.90
22781;DHT22;11557;50.884;4.322;2024-01-07T03:23:47;4.90;99.90
22781;DHT22;11557;50.884;4.322;2024-01-07T03:26:14;5.00;99.90
22781;DHT22;11557;50.884;4.322;2024-01-07T03:28:40;5.10;99.90
22781;DHT22;11557;50.884;4.322;2024-01-07T03:31:08;4.90;99.90
22781;DHT22;11557;50.884;4.322;2024-01-07T03:33:34;4.90;99.90
22781;DHT22;11557;50.884;4.322;2024-01-07T03:36:00;4.60;99.90
22781;DHT22;11557;50.884;4.322;2024-01-07T03:38:26;4.60;99.90
22781;DHT22;11557;50.884;4.322;2024-01-07T03:40:52;6.00;99.90
22781;DHT22;11557;50.884;4.322;2024-01-07T03:43:18;4.70;99.90
22781;DHT22;11557;50.884;4.322;2024-01-07T03:45:43;4.80;99.90
22781;DHT22;11557;50.884;4.322;2024-01-07T03:48:09;4.90;99.90
22781;DHT22;11557;50.884;4.322;2024-01-07T03:50:35;4.80;99.90
22781;DHT22;11557;50.884;4.322;2024-01-07T03:53:01;4.70;99.90
22781;DHT22;11557;50.884;4.322;2024-01-07T03:55:26;5.10;99.90
22781;DHT22;11557;50.884;4.322;2024-01-07T03:57:52;5.10;99.90
22781;DHT22;11557;50.884;4.322;2024-01-07T04:00:18;5.00;99.90
22781;DHT22;11557;50.884;4.322;2024-01-07T04:02:43;5.10;99.90
22781;DHT22;11557;50.884;4.322;2024-01-07T04:05:09;5.10;99.90
22781;DHT22;11557;50.884;4.322;2024-01-07T04:07:35;5.10;99.90
22781;DHT22;11557;50.884;4.322;2024-01-07T04:10:00;5.20;99.90
22781;DHT22;11557;50.884;4.322;2024-01-07T04:12:26;4.90;99.90
22781;DHT22;11557;50.884;4.322;2024-01-07T04:14:52;4.90;99.90
22781;DHT22;11557;50.884;4.322;2024-01-07T04:17:18;4.80;99.90
22781;DHT22;11557;50.884;4.322;2024-01-07T04:19:44;4.80;99.90
22781;DHT22;11557;50.884;4.322;2024-01-07T04:22:09;4.90;99.90
22781;DHT22;11557;50.884;4.322;2024-01-07T04:24:35;5.00;99.90
22781;DHT22;11557;50.884;4.322;2024-01-07T04:27:01;4.70;99.90
22781;DHT22;11557;50.884;4.322;2024-01-07T04:29:26;4.90;99.90
22781;DHT22;11557;50.884;4.322;2024-01-07T04:31:52;4.90;99.90
22781;DHT22;11557;50.884;4.322;2024-01-07T04:34:18;4.90;99.90
22781;DHT22;11557;50.884;4.322;2024-01-07T04:36:43;4.60;99.90
22781;DHT22;11557;50.884;4.322;2024-01-07T04:39:09;4.70;99.90
22781;DHT22;11557;50.884;4.322;2024-01-07T04:41:35;4.80;99.90
22781;DHT22;11557;50.884;4.322;2024-01-07T04:44:01;4.90;99.90
22781;DHT22;11557;50.884;4.322;2024-01-07T04:46:27;4.90;99.90
22781;DHT22;11557;50.884;4.322;2024-01-07T04:48:52;4.70;99.90
22781;DHT22;11557;50.884;4.322;2024-01-07T04:51:18;4.80;99.90
22781;DHT22;11557;50.884;4.322;2024-01-07T04:53:44;4.70;99.90
22781;DHT22;11557;50.884;4.322;2024-01-07T04:56:09;4.70;99.90
22781;DHT22;11557;50.884;4.322;2024-01-07T04:58:35;4.70;99.90
22781;DHT22;11557;50.884;4.322;2024-01-07T05:01:00;4.80;99.90
22781;DHT22;11557;50.884;4.322;2024-01-07T05:03:26;4.70;99.90
22781;DHT22;11557;50.884;4.322;2024-01-07T05:05:52;4.50;99.90
22781;DHT22;11557;50.884;4.322;2024-01-07T05:08:17;4.50;99.90
22781;DHT22;11557;50.884;4.322;2024-01-07T05:10:43;4.80;99.90
22781;DHT22;11557;50.884;4.322;2024-01-07T05:13:09;4.80;99.90
22781;DHT22;11557;50.884;4.322;2024-01-07T05:15:36;5.00;99.90
22781;DHT22;11557;50.884;4.322;2024-01-07T05:18:01;5.00;99.90
22781;DHT22;11557;50.884;4.322;2024-01-07T05:20:27;4.70;99.90
22781;DHT22;11557;50.884;4.322;2024-01-07T05:22:53;4.60;99.90
22781;DHT22;11557;50.884;4.322;2024-01-07T05:25:19;4.80;99.90
22781;DHT22;11557;50.884;4.322;2024-01-07T05:27:44;4.80;99.90
22781;DHT22;11557;50.884;4.322;2024-01-07T05:30:10;4.70;99.90
22781;DHT22;11557;50.884;4.322;2024-01-07T05:32:36;5.00;99.90
22781;DHT22;11557;50.884;4.322;2024-01-07T05:35:02;5.20;99.90
22781;DHT22;11557;50.884;4.322;2024-01-07T05:37:28;5.00;99.90
22781;DHT22;11557;50.884;4.322;2024-01-07T05:39:53;4.90;99.90
22781;DHT22;11557;50.884;4.322;2024-01-07T05:42:19;4.80;99.90
22781;DHT22;11557;50.884;4.322;2024-01-07T05:44:45;4.60;99.90
22781;DHT22;11557;50.884;4.322;2024-01-07T05:47:11;4.50;99.90
22781;DHT22;11557;50.884;4.322;2024-01-07T05:49:36;4.50;99.90
22781;DHT22;11557;50.884;4.322;2024-01-07T05:52:02;4.60;99.90
22781;DHT22;11557;50.884;4.322;2024-01-07T05:54:27;4.60;99.90
22781;DHT22;11557;50.884;4.322;2024-01-07T05:56:53;4.70;99.90
22781;DHT22;11557;50.884;4.322;2024-01-07T05:59:19;4.80;99.90
22781;DHT22;11557;50.884;4.322;2024-01-07T06:01:44;4.70;99.90
22781;DHT22;11557;50.884;4.322;2024-01-07T06:04:10;4.60;99.90
22781;DHT22;11557;50.884;4.322;2024-01-07T06:06:36;4.40;99.90
22781;DHT22;11557;50.884;4.322;2024-01-07T06:09:02;4.60;99.90
22781;DHT22;11557;50.884;4.322;2024-01-07T06:11:27;4.60;99.90
22781;DHT22;11557;50.884;4.322;2024-01-07T06:13:53;4.70;99.90
22781;DHT22;11557;50.884;4.322;2024-01-07T06:16:25;5.70;99.90
22781;DHT22;11557;50.884;4.322;2024-01-07T06:18:51;4.80;99.90
22781;DHT22;11557;50.884;4.322;2024-01-07T06:21:17;4.70;99.90
22781;DHT22;11557;50.884;4.322;2024-01-07T06:23:42;4.50;99.90
22781;DHT22;11557;50.884;4.322;2024-01-07T06:26:08;4.50;99.90
22781;DHT22;11557;50.884;4.322;2024-01-07T06:28:34;4.60;99.90
22781;DHT22;11557;50.884;4.322;2024-01-07T06:31:02;4.60;99.90
22781;DHT22;11557;50.884;4.322;2024-01-07T06:33:28;4.60;99.90
22781;DHT22;11557;50.884;4.322;2024-01-07T06:35:54;4.60;99.90
22781;DHT22;11557;50.884;4.322;2024-01-07T06:38:20;4.70;99.90
22781;DHT22;11557;50.884;4.322;2024-01-07T06:40:45;4.80;99.90
22781;DHT22;11557;50.884;4.322;2024-01-07T06:43:11;4.70;99.90
22781;DHT22;11557;50.884;4.322;2024-01-07T06:45:36;4.80;99.90
22781;DHT22;11557;50.884;4.322;2024-01-07T06:48:02;4.70;99.90
22781;DHT22;11557;50.884;4.322;2024-01-07T06:50:28;4.60;99.90
22781;DHT22;11557;50.884;4.322;2024-01-07T06:52:54;4.70;99.90
22781;DHT22;11557;50.884;4.322;2024-01-07T06:55:20;4.80;99.90
22781;DHT22;11557;50.884;4.322;2024-01-07T06:57:45;4.80;99.90
22781;DHT22;11557;50.884;4.322;2024-01-07T07:00:11;4.80;99.90
22781;DHT22;11557;50.884;4.322;2024-01-07T07:02:37;4.70;99.90
22781;DHT22;11557;50.884;4.322;2024-01-07T07:05:03;4.50;99.90
22781;DHT22;11557;50.884;4.322;2024-01-07T07:07:29;4.50;99.90
22781;DHT22;11557;50.884;4.322;2024-01-07T07:09:54;4.60;99.90
22781;DHT22;11557;50.884;4.322;2024-01-07T07:12:20;4.30;99.90
22781;DHT22;11557;50.884;4.322;2024-01-07T07:14:46;4.20;99.90
22781;DHT22;11557;50.884;4.322;2024-01-07T07:17:13;4.70;99.90
22781;DHT22;11557;50.884;4.322;2024-01-07T07:19:39;4.40;99.90
22781;DHT22;11557;50.884;4.322;2024-01-07T07:22:04;4.50;99.90
22781;DHT22;11557;50.884;4.322;2024-01-07T07:24:30;4.40;99.90
22781;DHT22;11557;50.884;4.322;2024-01-07T07:26:56;4.50;99.90
22781;DHT22;11557;50.884;4.322;2024-01-07T07:29:21;4.70;99.90
22781;DHT22;11557;50.884;4.322;2024-01-07T07:31:47;4.30;99.90
22781;DHT22;11557;50.884;4.322;2024-01-07T07:34:13;4.40;99.90
22781;DHT22;11557;50.884;4.322;2024-01-07T07:36:38;4.60;99.90
22781;DHT22;11557;50.884;4.322;2024-01-07T07:39:06;4.70;99.90
22781;DHT22;11557;50.884;4.322;2024-01-07T07:41:32;4.70;99.90
22781;DHT22;11557;50.884;4.322;2024-01-07T07:43:58;4.60;99.90
22781;DHT22;11557;50.884;4.322;2024-01-07T07:46:23;4.70;99.90
22781;DHT22;11557;50.884;4.322;2024-01-07T07:48:49;4.80;99.90
22781;DHT22;11557;50.884;4.322;2024-01-07T07:51:15;4.70;99.90
22781;DHT22;11557;50.884;4.322;2024-01-07T07:53:40;4.60;99.90
22781;DHT22;11557;50.884;4.322;2024-01-07T07:56:06;4.70;99.90
22781;DHT22;11557;50.884;4.322;2024-01-07T07:58:32;4.60;99.90
22781;DHT22;11557;50.884;4.322;2024-01-07T08:00:57;4.60;99.90
22781;DHT22;11557;50.884;4.322;2024-01-07T08:03:23;4.60;99.90
22781;DHT22;11557;50.884;4.322;2024-01-07T08:05:49;4.60;99.90
22781;DHT22;11557;50.884;4.322;2024-01-07T08:08:15;4.50;99.90
22781;DHT22;11557;50.884;4.322;2024-01-07T08:10:42;4.30;99.90
22781;DHT22;11557;50.884;4.322;2024-01-07T08:13:08;4.20;99.90
22781;DHT22;11557;50.884;4.322;2024-01-07T08:15:35;4.10;99.90
22781;DHT22;11557;50.884;4.322;2024-01-07T08:18:01;4.10;99.90
22781;DHT22;11557;50.884;4.322;2024-01-07T08:20:28;4.10;99.90
22781;DHT22;11557;50.884;4.322;2024-01-07T08:22:54;4.20;99.90
22781;DHT22;11557;50.884;4.322;2024-01-07T08:25:20;4.30;99.90
22781;DHT22;11557;50.884;4.322;2024-01-07T08:27:46;4.20;99.90
22781;DHT22;11557;50.884;4.322;2024-01-07T08:30:12;4.20;99.90
22781;DHT22;11557;50.884;4.322;2024-01-07T08:32:39;4.00;99.90
22781;DHT22;11557;50.884;4.322;2024-01-07T08:35:06;4.20;99.90
22781;DHT22;11557;50.884;4.322;2024-01-07T08:37:31;4.30;99.90
22781;DHT22;11557;50.884;4.322;2024-01-07T08:39:58;4.20;99.90
22781;DHT22;11557;50.884;4.322;2024-01-07T08:42:28;4.40;99.90
22781;DHT22;11557;50.884;4.322;2024-01-07T08:44:57;4.60;99.90
22781;DHT22;11557;50.884;4.322;2024-01-07T08:47:24;4.60;99.90
22781;DHT22;11557;50.884;4.322;2024-01-07T08:49:50;4.40;99.90
22781;DHT22;11557;50.884;4.322;2024-01-07T08:52:19;4.60;99.90
22781;DHT22;11557;50.884;4.322;2024-01-07T08:54:44;4.60;99.90
22781;DHT22;11557;50.884;4.322;2024-01-07T08:57:10;4.60;99.90
22781;DHT22;11557;50.884;4.322;2024-01-07T08:59:36;4.70;99.90
22781;DHT22;11557;50.884;4.322;2024-01-07T09:02:02;4.80;99.90
22781;DHT22;11557;50.884;4.322;2024-01-07T09:04:28;4.70;99.90
22781;DHT22;11557;50.884;4.322;2024-01-07T09:06:53;4.50;99.90
22781;DHT22;11557;50.884;4.322;2024-01-07T09:09:19;4.40;99.90
22781;DHT22;11557;50.884;4.322;2024-01-07T09:11:44;4.40;99.90
22781;DHT22;11557;50.884;4.322;2024-01-07T09:14:11;4.50;99.90
22781;DHT22;11557;50.884;4.322;2024-01-07T09:16:37;4.60;99.90
22781;DHT22;11557;50.884;4.322;2024-01-07T09:19:03;4.60;99.90
22781;DHT22;11557;50.884;4.322;2024-01-07T09:21:28;4.80;99.90
22781;DHT22;11557;50.884;4.322;2024-01-07T09:23:54;4.80;99.90
22781;DHT22;11557;50.884;4.322;2024-01-07T09:26:20;4.70;99.90
22781;DHT22;11557;50.884;4.322;2024-01-07T09:28:46;4.70;99.90
22781;DHT22;11557;50.884;4.322;2024-01-07T09:31:11;4.60;99.90
22781;DHT22;11557;50.884;4.322;2024-01-07T09:33:37;4.60;99.90
22781;DHT22;11557;50.884;4.322;2024-01-07T09:36:03;4.60;99.90
22781;DHT22;11557;50.884;4.322;2024-01-07T09:38:29;4.70;99.90
22781;DHT22;11557;50.884;4.322;2024-01-07T09:40:54;4.80;99.90
22781;DHT22;11557;50.884;4.322;2024-01-07T09:43:20;4.90;99.90
22781;DHT22;11557;50.884;4.322;2024-01-07T09:45:47;4.80;99.90
22781;DHT22;11557;50.884;4.322;2024-01-07T09:48:15;4.90;99.90
22781;DHT22;11557;50.884;4.322;2024-01-07T09:50:42;4.90;99.90
22781;DHT22;11557;50.884;4.322;2024-01-07T09:53:14;4.80;99.90
22781;DHT22;11557;50.884;4.322;2024-01-07T09:56:07;4.60;99.90
22781;DHT22;11557;50.884;4.322;2024-01-07T09:58:34;4.50;99.90
22781;DHT22;11557;50.884;4.322;2024-01-07T10:01:00;4.60;99.90
22781;DHT22;11557;50.884;4.322;2024-01-07T10:03:27;4.60;99.90
22781;DHT22;11557;50.884;4.322;2024-01-07T10:05:52;4.80;99.90
22781;DHT22;11557;50.884;4.322;2024-01-07T10:08:19;4.80;99.90
22781;DHT22;11557;50.884;4.322;2024-01-07T10:10:45;4.90;99.90
22781;DHT22;11557;50.884;4.322;2024-01-07T10:13:14;4.70;99.90
22781;DHT22;11557;50.884;4.322;2024-01-07T10:15:40;4.70;99.90
22781;DHT22;11557;50.884;4.322;2024-01-07T10:18:06;4.60;99.90
22781;DHT22;11557;50.884;4.322;2024-01-07T10:20:33;4.70;99.90
22781;DHT22;11557;50.884;4.322;2024-01-07T10:23:00;4.70;99.90
22781;DHT22;11557;50.884;4.322;2024-01-07T10:25:26;4.80;99.90
22781;DHT22;11557;50.884;4.322;2024-01-07T10:27:51;4.70;99.90
22781;DHT22;11557;50.884;4.322;2024-01-07T10:30:17;4.70;99.90
22781;DHT22;11557;50.884;4.322;2024-01-07T10:32:43;4.80;99.90
22781;DHT22;11557;50.884;4.322;2024-01-07T10:35:13;4.90;99.90
22781;DHT22;11557;50.884;4.322;2024-01-07T10:37:42;4.60;99.90
22781;DHT22;11557;50.884;4.322;2024-01-07T10:40:11;4.60;99.90
22781;DHT22;11557;50.884;4.322;2024-01-07T10:42:38;4.70;99.90
22781;DHT22;11557;50.884;4.322;2024-01-07T10:45:04;4.80;99.90
22781;DHT22;11557;50.884;4.322;2024-01-07T10:47:31;4.80;99.90
22781;DHT22;11557;50.884;4.322;2024-01-07T10:49:58;4.80;99.90
22781;DHT22;11557;50.884;4.322;2024-01-07T10:52:27;4.90;99.90
22781;DHT22;11557;50.884;4.322;2024-01-07T10:54:56;4.80;99.90
22781;DHT22;11557;50.884;4.322;2024-01-07T10:57:34;4.60;99.90
22781;DHT22;11557;50.884;4.322;2024-01-07T11:00:02;4.50;99.90
22781;DHT22;11557;50.884;4.322;2024-01-07T11:02:37;4.50;99.90
22781;DHT22;11557;50.884;4.322;2024-01-07T11:05:23;4.50;99.90
22781;DHT22;11557;50.884;4.322;2024-01-07T11:10:57;4.50;99.90
22781;DHT22;11557;50.884;4.322;2024-01-07T11:13:37;4.50;99.90
22781;DHT22;11557;50.884;4.322;2024-01-07T11:16:06;4.60;99.90
22781;DHT22;11557;50.884;4.322;2024-01-07T11:18:45;4.40;99.90
22781;DHT22;11557;50.884;4.322;2024-01-07T11:21:23;4.20;99.90
22781;DHT22;11557;50.884;4.322;2024-01-07T11:23:50;4.30;99.90
22781;DHT22;11557;50.884;4.322;2024-01-07T11:26:19;4.40;99.90
22781;DHT22;11557;50.884;4.322;2024-01-07T11:28:49;5.00;99.90
22781;DHT22;11557;50.884;4.322;2024-01-07T11:31:17;4.60;99.90
22781;DHT22;11557;50.884;4.322;2024-01-07T11:33:48;4.30;99.90
22781;DHT22;11557;50.884;4.322;2024-01-07T11:36:16;4.20;99.90
22781;DHT22;11557;50.884;4.322;2024-01-07T11:38:49;4.30;99.90
22781;DHT22;11557;50.884;4.322;2024-01-07T11:41:16;4.40;99.90
22781;DHT22;11557;50.884;4.322;2024-01-07T11:46:21;4.50;99.90
22781;DHT22;11557;50.884;4.322;2024-01-07T11:48:47;4.40;99.90
22781;DHT22;11557;50.884;4.322;2024-01-07T11:51:12;4.60;99.90
22781;DHT22;11557;50.884;4.322;2024-01-07T11:53:38;4.60;99.90
22781;DHT22;11557;50.884;4.322;2024-01-07T11:56:04;4.60;99.90
22781;DHT22;11557;50.884;4.322;2024-01-07T11:58:30;5.50;99.90
22781;DHT22;11557;50.884;4.322;2024-01-07T12:00:56;4.40;99.90
22781;DHT22;11557;50.884;4.322;2024-01-07T12:03:26;4.70;99.90
22781;DHT22;11557;50.884;4.322;2024-01-07T12:05:52;4.40;99.90
22781;DHT22;11557;50.884;4.322;2024-01-07T12:08:18;4.50;99.90
22781;DHT22;11557;50.884;4.322;2024-01-07T12:10:44;4.70;99.90
22781;DHT22;11557;50.884;4.322;2024-01-07T12:13:11;4.70;99.90
22781;DHT22;11557;50.884;4.322;2024-01-07T12:15:37;4.50;99.90
22781;DHT22;11557;50.884;4.322;2024-01-07T12:18:04;4.50;99.90
22781;DHT22;11557;50.884;4.322;2024-01-07T12:20:30;4.30;99.90
22781;DHT22;11557;50.884;4.322;2024-01-07T12:22:57;4.60;99.90
22781;DHT22;11557;50.884;4.322;2024-01-07T12:25:23;4.40;99.90
22781;DHT22;11557;50.884;4.322;2024-01-07T12:27:50;4.30;99.90
22781;DHT22;11557;50.884;4.322;2024-01-07T12:30:19;4.40;99.90
22781;DHT22;11557;50.884;4.322;2024-01-07T12:32:45;4.50;99.90
22781;DHT22;11557;50.884;4.322;2024-01-07T12:35:12;4.50;99.90
22781;DHT22;11557;50.884;4.322;2024-01-07T12:37:38;4.70;99.90
22781;DHT22;11557;50.884;4.322;2024-01-07T12:40:04;4.70;99.90
22781;DHT22;11557;50.884;4.322;2024-01-07T12:42:30;4.90;99.90
22781;DHT22;11557;50.884;4.322;2024-01-07T12:44:56;4.70;99.90
22781;DHT22;11557;50.884;4.322;2024-01-07T12:47:22;4.80;99.90
22781;DHT22;11557;50.884;4.322;2024-01-07T12:49:49;4.90;99.90
22781;DHT22;11557;50.884;4.322;2024-01-07T12:52:14;5.00;99.90
22781;DHT22;11557;50.884;4.322;2024-01-07T12:54:40;5.00;99.90
22781;DHT22;11557;50.884;4.322;2024-01-07T12:57:06;5.00;99.90
22781;DHT22;11557;50.884;4.322;2024-01-07T12:59:32;4.90;99.90
22781;DHT22;11557;50.884;4.322;2024-01-07T13:01:57;5.00;99.90
22781;DHT22;11557;50.884;4.322;2024-01-07T13:04:23;4.90;99.90
22781;DHT22;11557;50.884;4.322;2024-01-07T13:06:49;4.60;99.90
22781;DHT22;11557;50.884;4.322;2024-01-07T13:09:15;4.60;99.90
22781;DHT22;11557;50.884;4.322;2024-01-07T13:11:41;4.70;99.90
22781;DHT22;11557;50.884;4.322;2024-01-07T13:14:06;4.70;99.90
22781;DHT22;11557;50.884;4.322;2024-01-07T13:16:32;4.70;99.90
22781;DHT22;11557;50.884;4.322;2024-01-07T13:18:58;4.80;99.90
22781;DHT22;11557;50.884;4.322;2024-01-07T13:21:24;4.60;99.90
22781;DHT22;11557;50.884;4.322;2024-01-07T13:23:50;4.40;99.90
22781;DHT22;11557;50.884;4.322;2024-01-07T13:26:16;4.50;99.90
22781;DHT22;11557;50.884;4.322;2024-01-07T13:28:42;4.40;99.90
22781;DHT22;11557;50.884;4.322;2024-01-07T13:31:11;4.10;99.90
22781;DHT22;11557;50.884;4.322;2024-01-07T13:33:41;4.50;99.90
22781;DHT22;11557;50.884;4.322;2024-01-07T13:36:06;4.30;99.90
22781;DHT22;11557;50.884;4.322;2024-01-07T13:38:36;4.30;99.90
22781;DHT22;11557;50.884;4.322;2024-01-07T13:41:04;4.20;99.90
22781;DHT22;11557;50.884;4.322;2024-01-07T13:43:29;4.20;99.90
22781;DHT22;11557;50.884;4.322;2024-01-07T13:45:56;4.30;99.90
22781;DHT22;11557;50.884;4.322;2024-01-07T13:48:21;4.30;99.90
22781;DHT22;11557;50.884;4.322;2024-01-07T13:50:47;4.40;99.90
22781;DHT22;11557;50.884;4.322;2024-01-07T13:53:15;4.40;99.90
22781;DHT22;11557;50.884;4.322;2024-01-07T13:55:40;4.40;99.90
22781;DHT22;11557;50.884;4.322;2024-01-07T13:58:06;4.40;99.90
22781;DHT22;11557;50.884;4.322;2024-01-07T14:00:32;4.40;99.90
22781;DHT22;11557;50.884;4.322;2024-01-07T14:02:58;4.50;99.90
22781;DHT22;11557;50.884;4.322;2024-01-07T14:05:24;4.60;99.90
22781;DHT22;11557;50.884;4.322;2024-01-07T14:07:49;4.40;99.90
22781;DHT22;11557;50.884;4.322;2024-01-07T14:10:17;4.40;99.90
22781;DHT22;11557;50.884;4.322;2024-01-07T14:12:45;4.40;99.90
22781;DHT22;11557;50.884;4.322;2024-01-07T14:15:11;4.50;99.90
22781;DHT22;11557;50.884;4.322;2024-01-07T14:17:37;4.40;99.90
22781;DHT22;11557;50.884;4.322;2024-01-07T14:20:03;4.50;99.90
22781;DHT22;11557;50.884;4.322;2024-01-07T14:22:29;4.70;99.90
22781;DHT22;11557;50.884;4.322;2024-01-07T14:24:55;4.80;99.90
22781;DHT22;11557;50.884;4.322;2024-01-07T14:27:20;4.80;99.90
22781;DHT22;11557;50.884;4.322;2024-01-07T14:29:46;4.80;99.90
22781;DHT22;11557;50.884;4.322;2024-01-07T14:32:12;4.60;99.90
22781;DHT22;11557;50.884;4.322;2024-01-07T14:34:39;4.60;99.90
22781;DHT22;11557;50.884;4.322;2024-01-07T14:37:10;4.60;99.90
22781;DHT22;11557;50.884;4.322;2024-01-07T14:39:36;4.50;99.90
22781;DHT22;11557;50.884;4.322;2024-01-07T14:42:02;4.40;99.90
22781;DHT22;11557;50.884;4.322;2024-01-07T14:44:29;4.30;99.90
22781;DHT22;11557;50.884;4.322;2024-01-07T14:46:55;4.40;99.90
22781;DHT22;11557;50.884;4.322;2024-01-07T14:49:21;4.50;99.90
22781;DHT22;11557;50.884;4.322;2024-01-07T14:51:47;4.30;99.90
22781;DHT22;11557;50.884;4.322;2024-01-07T14:54:13;4.20;99.90
22781;DHT22;11557;50.884;4.322;2024-01-07T14:56:38;4.20;99.90
22781;DHT22;11557;50.884;4.322;2024-01-07T14:59:05;4.20;99.90
22781;DHT22;11557;50.884;4.322;2024-01-07T15:01:31;4.10;99.90
22781;DHT22;11557;50.884;4.322;2024-01-07T15:03:56;4.20;99.90
22781;DHT22;11557;50.884;4.322;2024-01-07T15:06:22;4.10;99.90
22781;DHT22;11557;50.884;4.322;2024-01-07T15:08:49;4.10;99.90
22781;DHT22;11557;50.884;4.322;2024-01-07T15:11:15;4.10;99.90
22781;DHT22;11557;50.884;4.322;2024-01-07T15:13:42;3.90;99.90
22781;DHT22;11557;50.884;4.322;2024-01-07T15:16:11;3.90;99.90
22781;DHT22;11557;50.884;4.322;2024-01-07T15:18:37;4.00;99.90
22781;DHT22;11557;50.884;4.322;2024-01-07T15:21:03;4.20;99.90
22781;DHT22;11557;50.884;4.322;2024-01-07T15:23:29;4.10;99.90
22781;DHT22;11557;50.884;4.322;2024-01-07T15:25:55;4.50;99.90
22781;DHT22;11557;50.884;4.322;2024-01-07T15:28:20;4.00;99.90
22781;DHT22;11557;50.884;4.322;2024-01-07T15:30:46;3.80;99.90
22781;DHT22;11557;50.884;4.322;2024-01-07T15:33:13;3.80;99.90
22781;DHT22;11557;50.884;4.322;2024-01-07T15:35:39;3.80;99.90
22781;DHT22;11557;50.884;4.322;2024-01-07T15:38:05;3.90;99.90
22781;DHT22;11557;50.884;4.322;2024-01-07T15:40:31;3.70;99.90
22781;DHT22;11557;50.884;4.322;2024-01-07T15:42:58;3.80;99.90
22781;DHT22;11557;50.884;4.322;2024-01-07T15:45:24;3.90;99.90